Time;durP1;ratioP1;P1;durP2;ratioP2;P2;SDS_P1;SDS_P2;PMS_P1;PMS_P2;Temp;Humidity;BMP_temperature;BMP_pressure;BME280_temperature;BME280_humidity;BME280_pressure;Samples;Min_cycle;Max_cycle;Signal;HPM_P1;HPM_P2
2023/05/14 00:00:30;;;;;;;11.43;9.68;;;;;;;13.91;85.87;101838.38;4988910;28;20356;-76
2023/05/14 00:02:58;;;;;;;10.63;9.38;;;;;;;13.85;85.15;101835.34;4987153;28;20026;-74
2023/05/14 00:05:24;;;;;;;16.23;10.10;;;;;;;13.86;86.39;101837.03;4989166;28;20047;-75
2023/05/14 00:07:49;;;;;;;12.07;9.82;;;;;;;13.84;85.66;101831.84;5006584;28;20026;-74
2023/05/14 00:10:17;;;;;;;13.35;9.52;;;;;;;13.84;85.82;101828.34;4984409;28;20034;-76
2023/05/14 00:12:43;;;;;;;10.95;9.82;;;;;;;13.85;86.42;101816.81;4987249;28;20026;-76
2023/05/14 00:15:09;;;;;;;12.70;9.63;;;;;;;13.85;86.48;101824.75;4984125;28;20088;-76
2023/05/14 00:17:36;;;;;;;12.38;9.60;;;;;;;13.84;86.66;101823.06;4990333;28;20049;-76
2023/05/14 00:20:05;;;;;;;14.55;10.48;;;;;;;13.84;86.71;101828.34;4991727;28;20054;-77
2023/05/14 00:22:31;;;;;;;14.70;10.55;;;;;;;13.78;86.29;101816.41;4992020;28;20025;-77
2023/05/14 00:25:03;;;;;;;11.60;10.23;;;;;;;13.84;86.11;101831.84;4990979;28;20026;-77
2023/05/14 00:27:28;;;;;;;15.75;10.90;;;;;;;13.71;86.19;101828.41;4986919;28;20026;-75
2023/05/14 00:29:54;;;;;;;17.58;11.32;;;;;;;13.69;86.31;101819.72;4971632;28;20027;-74
2023/05/14 00:32:19;;;;;;;12.65;10.43;;;;;;;13.71;86.68;101818.66;4978203;28;20063;-75
2023/05/14 00:34:44;;;;;;;13.68;10.73;;;;;;;13.66;86.42;101819.94;4988191;28;20034;-75
2023/05/14 00:37:10;;;;;;;12.65;11.32;;;;;;;13.60;86.53;101815.91;4986510;28;20060;-75
2023/05/14 00:39:35;;;;;;;12.25;10.85;;;;;;;13.55;86.86;101806.63;4991813;28;20022;-75
2023/05/14 00:42:00;;;;;;;12.75;11.55;;;;;;;13.50;87.51;101806.94;4990329;28;20098;-74
2023/05/14 00:44:26;;;;;;;13.10;11.60;;;;;;;13.46;88.13;101805.47;4988775;28;20117;-75
2023/05/14 00:46:51;;;;;;;16.52;11.90;;;;;;;13.45;88.07;101806.44;5002543;28;20113;-75
2023/05/14 00:49:17;;;;;;;13.50;12.10;;;;;;;13.40;88.63;101803.28;4976057;28;20046;-75
2023/05/14 00:51:45;;;;;;;14.35;11.98;;;;;;;13.33;88.51;101796.72;4969719;28;20031;-76
2023/05/14 00:54:13;;;;;;;14.02;11.88;;;;;;;13.33;89.49;101797.56;4969789;28;20057;-76
2023/05/14 00:56:38;;;;;;;13.45;12.13;;;;;;;13.28;89.79;101799.69;4970816;28;20061;-75
2023/05/14 00:59:04;;;;;;;14.82;12.88;;;;;;;13.25;89.77;101799.06;4982931;28;20113;-75
2023/05/14 01:01:37;;;;;;;13.98;12.75;;;;;;;13.21;90.33;101793.16;4989915;28;20422;-76
2023/05/14 01:04:04;;;;;;;14.32;12.70;;;;;;;13.16;90.44;101800.50;4990029;28;20034;-76
2023/05/14 01:07:17;;;;;;;23.65;13.20;;;;;;;13.11;90.75;101797.34;4987394;28;20026;-76
2023/05/14 01:09:58;;;;;;;16.65;14.02;;;;;;;13.08;90.71;101798.41;4949688;28;20034;-76
2023/05/14 01:12:51;;;;;;;15.55;13.15;;;;;;;13.12;90.31;101799.03;4984776;28;20081;-75
2023/05/14 01:15:43;;;;;;;14.98;13.35;;;;;;;13.09;91.36;101797.44;4971311;28;20034;-75
2023/05/14 01:18:12;;;;;;;14.60;13.10;;;;;;;12.94;91.69;101798.50;4971074;28;20019;-75
2023/05/14 01:20:49;;;;;;;16.02;13.77;;;;;;;12.93;92.71;101796.81;4971105;28;20019;-75
2023/05/14 01:23:15;;;;;;;15.05;13.45;;;;;;;12.91;92.99;101796.09;4975297;28;20026;-75
2023/05/14 01:25:49;;;;;;;16.35;13.35;;;;;;;12.90;93.41;101791.75;4987532;28;20494;-75
2023/05/14 01:28:19;;;;;;;17.38;15.05;;;;;;;12.82;93.96;101797.56;4985869;28;20034;-75
2023/05/14 01:31:08;;;;;;;15.43;13.82;;;;;;;12.81;94.73;101792.38;4991171;28;20033;-76
2023/05/14 01:33:48;;;;;;;17.10;14.75;;;;;;;12.69;94.70;101791.41;4990577;28;20034;-75
2023/05/14 01:36:16;;;;;;;16.60;14.90;;;;;;;12.67;94.85;101787.19;4989661;28;20088;-75
2023/05/14 01:38:44;;;;;;;18.23;16.05;;;;;;;12.61;95.39;101790.25;4988857;28;20037;-75
2023/05/14 01:41:13;;;;;;;16.88;14.70;;;;;;;12.63;96.01;101778.63;4985982;28;20027;-75
2023/05/14 01:43:39;;;;;;;16.45;14.68;;;;;;;12.61;95.49;101783.16;4989506;28;20050;-75
2023/05/14 01:46:05;;;;;;;18.92;15.65;;;;;;;12.50;96.17;101780.41;4988541;28;20033;-74
2023/05/14 01:48:31;;;;;;;17.50;15.63;;;;;;;12.49;96.61;101776.91;4988643;28;20034;-75
2023/05/14 01:50:56;;;;;;;17.63;15.80;;;;;;;12.44;96.67;101789.59;4988672;28;20049;-75
2023/05/14 01:53:22;;;;;;;17.17;15.48;;;;;;;12.47;96.79;101792.00;4986012;28;20034;-77
2023/05/14 01:55:47;;;;;;;19.33;17.33;;;;;;;12.35;97.05;101794.59;4987986;28;20037;-75
2023/05/14 01:58:14;;;;;;;19.85;16.75;;;;;;;12.33;97.42;101792.06;4987864;28;20061;-74
2023/05/14 02:00:41;;;;;;;19.17;17.15;;;;;;;12.32;97.70;101786.88;4989660;28;20061;-75
2023/05/14 02:03:06;;;;;;;19.58;17.63;;;;;;;12.31;97.26;101786.03;4987549;28;20364;-75
2023/05/14 02:05:31;;;;;;;19.30;17.35;;;;;;;12.33;97.45;101778.03;4990013;28;20121;-76
2023/05/14 02:08:01;;;;;;;21.00;18.02;;;;;;;12.20;97.60;101784.13;4988448;28;20475;-75
2023/05/14 02:10:50;;;;;;;20.48;18.50;;;;;;;12.23;97.19;101778.66;5003005;28;20030;-75
2023/05/14 02:13:18;;;;;;;20.70;17.80;;;;;;;12.18;97.77;101777.25;4970168;28;20037;-75
2023/05/14 02:15:43;;;;;;;20.23;18.15;;;;;;;12.19;98.38;101781.59;4979730;28;20386;-75
2023/05/14 02:18:09;;;;;;;22.55;18.80;;;;;;;12.16;98.94;101773.88;4987431;28;20022;-75
2023/05/14 02:20:34;;;;;;;26.38;18.75;;;;;;;12.12;98.88;101775.88;4989230;28;20102;-75
2023/05/14 02:23:00;;;;;;;20.83;18.70;;;;;;;12.11;98.85;101775.97;4991970;28;20049;-75
2023/05/14 02:25:25;;;;;;;20.63;18.42;;;;;;;12.14;98.50;101781.03;5008721;28;20022;-75
2023/05/14 02:27:50;;;;;;;20.98;18.88;;;;;;;12.11;98.98;101783.88;4993833;28;20026;-75
2023/05/14 02:30:20;;;;;;;23.85;19.48;;;;;;;12.05;99.63;101779.03;5004936;28;20045;-75
2023/05/14 02:32:45;;;;;;;22.60;20.05;;;;;;;12.01;99.36;101778.38;4990222;28;20037;-75
2023/05/14 02:35:11;;;;;;;21.58;19.35;;;;;;;12.06;99.07;101776.28;4992164;28;20022;-75
2023/05/14 02:37:36;;;;;;;21.77;19.73;;;;;;;12.09;100.00;101775.22;4992345;28;20034;-75
2023/05/14 02:40:03;;;;;;;21.17;18.98;;;;;;;12.11;99.79;101775.97;4992681;28;20444;-75
2023/05/14 02:42:28;;;;;;;22.33;19.10;;;;;;;12.08;99.46;101768.25;5008591;28;20101;-75
2023/05/14 02:44:53;;;;;;;23.05;20.02;;;;;;;12.09;99.74;101765.53;4992724;28;20475;-75
2023/05/14 02:47:19;;;;;;;23.13;19.88;;;;;;;12.09;99.98;101772.59;4988098;28;20090;-75
2023/05/14 02:49:44;;;;;;;22.08;19.80;;;;;;;12.07;99.56;101766.56;4993924;28;20019;-75
2023/05/14 02:52:10;;;;;;;22.27;20.08;;;;;;;12.12;100.00;101775.03;4991367;28;20382;-75
2023/05/14 02:54:35;;;;;;;22.20;19.90;;;;;;;12.06;100.00;101775.44;4992107;28;20045;-75
2023/05/14 02:57:05;;;;;;;22.38;20.08;;;;;;;12.06;100.00;101772.78;4991640;28;20034;-75
2023/05/14 02:59:30;;;;;;;22.27;20.00;;;;;;;12.02;100.00;101779.22;4989399;28;20045;-75
2023/05/14 03:02:05;;;;;;;22.17;20.13;;;;;;;12.02;100.00;101781.84;4992057;28;20030;-75
2023/05/14 03:04:30;;;;;;;20.80;18.70;;;;;;;12.04;100.00;101778.16;4985467;28;20033;-75
2023/05/14 03:06:55;;;;;;;22.77;20.10;;;;;;;11.98;100.00;101772.41;4992874;28;20026;-75
2023/05/14 03:09:21;;;;;;;22.52;20.45;;;;;;;11.96;100.00;101766.41;4991507;28;20406;-75
2023/05/14 03:11:59;;;;;;;23.88;21.35;;;;;;;11.88;100.00;101766.91;4990580;28;20086;-75
2023/05/14 03:14:24;;;;;;;24.27;21.77;;;;;;;11.85;100.00;101765.31;4991128;28;20068;-75
2023/05/14 03:16:49;;;;;;;24.13;21.38;;;;;;;11.85;100.00;101769.75;4991787;28;20062;-75
2023/05/14 03:19:14;;;;;;;25.98;21.55;;;;;;;11.79;100.00;101757.81;5005666;28;20446;-75
2023/05/14 03:21:44;;;;;;;24.50;21.73;;;;;;;11.74;100.00;101765.13;4989172;28;20026;-75
2023/05/14 03:24:16;;;;;;;23.50;21.33;;;;;;;11.76;100.00;101760.59;4978453;28;20034;-75
2023/05/14 03:26:47;;;;;;;25.57;22.33;;;;;;;11.68;100.00;101762.06;4990836;28;20407;-75
2023/05/14 03:29:12;;;;;;;23.90;21.40;;;;;;;11.69;100.00;101751.41;5006932;28;20033;-75
2023/05/14 03:31:37;;;;;;;26.23;22.40;;;;;;;11.56;100.00;101746.06;4993232;28;20382;-75
2023/05/14 03:34:03;;;;;;;25.00;22.60;;;;;;;11.59;100.00;101745.84;4988365;28;20026;-75
2023/05/14 03:36:28;;;;;;;25.85;22.98;;;;;;;11.51;100.00;101752.56;4992380;28;20038;-75
2023/05/14 03:38:54;;;;;;;24.85;22.35;;;;;;;11.45;100.00;101747.69;4978731;28;20239;-75
2023/05/14 03:41:20;;;;;;;25.85;23.25;;;;;;;11.40;100.00;101753.25;4972144;28;20030;-75
2023/05/14 03:43:49;;;;;;;25.52;23.08;;;;;;;11.36;100.00;101750.91;4972750;28;20050;-75
2023/05/14 03:46:15;;;;;;;25.30;22.92;;;;;;;11.34;100.00;101748.38;4983207;28;20022;-75
2023/05/14 03:48:43;;;;;;;28.58;25.65;;;;;;;11.26;100.00;101746.22;4989428;28;20030;-75
2023/05/14 03:51:09;;;;;;;27.00;24.20;;;;;;;11.21;100.00;101744.81;4989853;28;20598;-75
2023/05/14 03:53:35;;;;;;;27.67;24.90;;;;;;;11.20;100.00;101738.66;4990190;28;20105;-75
2023/05/14 03:56:00;;;;;;;27.30;24.63;;;;;;;11.15;100.00;101750.44;4986607;28;20030;-75
2023/05/14 03:58:26;;;;;;;27.20;24.38;;;;;;;11.15;100.00;101748.66;4986023;28;20034;-75
2023/05/14 04:00:52;;;;;;;28.65;25.73;;;;;;;11.09;100.00;101751.66;4990254;28;20046;-75
2023/05/14 04:03:21;;;;;;;28.40;25.60;;;;;;;11.05;100.00;101742.25;4989452;28;20019;-75
2023/05/14 04:05:46;;;;;;;29.25;26.15;;;;;;;11.01;100.00;101747.81;4988942;28;20033;-75
2023/05/14 04:08:12;;;;;;;28.95;26.23;;;;;;;10.98;100.00;101740.94;5003797;28;20487;-75
2023/05/14 04:10:37;;;;;;;28.35;25.27;;;;;;;10.98;100.00;101738.31;4990492;28;20117;-75
2023/05/14 04:13:03;;;;;;;29.50;26.40;;;;;;;10.95;100.00;101738.50;5001553;28;20026;-75
2023/05/14 04:15:28;;;;;;;27.92;25.05;;;;;;;10.94;100.00;101742.94;4987647;28;20022;-75
2023/05/14 04:17:53;;;;;;;29.98;26.85;;;;;;;10.96;100.00;101743.69;4991403;28;20030;-75
2023/05/14 04:20:18;;;;;;;29.90;26.83;;;;;;;10.97;100.00;101741.88;4990833;28;20022;-75
2023/05/14 04:22:44;;;;;;;29.90;26.83;;;;;;;10.94;100.00;101742.09;4990366;28;20023;-75
2023/05/14 04:25:09;;;;;;;30.05;27.13;;;;;;;10.94;100.00;101742.09;4989776;28;20097;-75
2023/05/14 04:27:35;;;;;;;28.17;25.33;;;;;;;10.88;100.00;101745.09;4989553;28;20030;-75
2023/05/14 04:30:00;;;;;;;29.45;26.65;;;;;;;10.90;100.00;101741.44;4989684;28;20022;-75
2023/05/14 04:32:25;;;;;;;30.50;27.27;;;;;;;10.92;100.00;101738.69;4986922;28;20459;-76
2023/05/14 04:34:51;;;;;;;30.73;27.73;;;;;;;10.95;100.00;101741.13;4976017;28;20030;-75
2023/05/14 04:37:16;;;;;;;29.83;26.85;;;;;;;10.90;100.00;101735.31;4978654;28;20045;-75
2023/05/14 04:39:42;;;;;;;29.60;26.60;;;;;;;10.93;100.00;101740.38;4988756;28;20100;-75
2023/05/14 04:42:13;;;;;;;30.13;27.02;;;;;;;10.88;100.00;101738.03;4990005;28;20166;-75
2023/05/14 04:44:39;;;;;;;30.40;27.55;;;;;;;10.91;100.00;101744.91;5005603;28;20018;-75
2023/05/14 04:47:13;;;;;;;33.22;27.92;;;;;;;10.91;100.00;101737.00;4990707;28;20479;-74
2023/05/14 04:49:38;;;;;;;30.52;27.08;;;;;;;10.94;100.00;101737.66;4988767;28;20034;-74
2023/05/14 04:52:05;;;;;;;30.17;27.33;;;;;;;11.02;100.00;101742.44;4987040;28;20030;-74
2023/05/14 04:54:41;;;;;;;30.92;27.67;;;;;;;11.02;100.00;101745.09;4982656;28;20026;-74
2023/05/14 04:57:12;;;;;;;31.77;28.52;;;;;;;11.04;100.00;101748.47;4988884;28;20041;-75
2023/05/14 04:59:38;;;;;;;32.33;27.92;;;;;;;11.08;100.00;101749.97;4971532;28;20026;-75
2023/05/14 05:02:04;;;;;;;31.63;28.33;;;;;;;11.08;100.00;101749.97;4982929;28;20128;-75
2023/05/14 05:04:30;;;;;;;32.08;28.70;;;;;;;11.17;100.00;101748.53;4989369;28;20073;-75
2023/05/14 05:06:56;;;;;;;31.17;27.98;;;;;;;11.24;100.00;101748.09;4988242;28;20033;-75
2023/05/14 05:09:23;;;;;;;32.05;27.42;;;;;;;11.25;100.00;101752.44;4999562;28;20030;-75
2023/05/14 05:12:12;;;;;;;31.92;27.67;;;;;;;11.32;100.00;101757.31;4988260;28;20074;-75
2023/05/14 05:14:38;;;;;;;30.80;27.05;;;;;;;11.34;100.00;101752.78;4987930;28;20033;-75
2023/05/14 05:17:10;;;;;;;29.73;26.67;;;;;;;11.30;100.00;101755.63;4984085;28;20022;-75
2023/05/14 05:19:41;;;;;;;30.67;27.52;;;;;;;11.23;100.00;101754.31;4988591;28;20038;-75
2023/05/14 05:22:10;;;;;;;29.95;27.00;;;;;;;11.34;100.00;101760.69;4989335;28;20037;-75
2023/05/14 05:24:38;;;;;;;29.42;26.10;;;;;;;11.40;100.00;101758.50;4988760;28;20022;-75
2023/05/14 05:27:14;;;;;;;28.88;25.83;;;;;;;11.37;100.00;101773.66;4985111;28;20482;-75
2023/05/14 05:29:41;;;;;;;30.73;26.08;;;;;;;11.45;100.00;101766.13;4989163;28;20031;-75
2023/05/14 05:35:22;;;;;;;27.02;24.17;;;;;;;11.55;100.00;101756.69;4971052;28;20090;-75
2023/05/14 05:38:22;;;;;;;35.13;24.13;;;;;;;11.60;100.00;101767.78;4986220;28;20034;-75
2023/05/14 05:41:22;;;;;;;27.15;24.23;;;;;;;11.63;100.00;101767.63;4971449;28;20046;-75
2023/05/14 05:44:05;;;;;;;33.17;24.05;;;;;;;11.57;100.00;101762.72;4965061;28;20046;-75
2023/05/14 05:46:30;;;;;;;27.95;23.27;;;;;;;11.62;100.00;101765.94;4966273;28;20030;-75
2023/05/14 05:49:15;;;;;;;28.35;23.98;;;;;;;11.72;100.00;101764.38;4968420;28;20062;-75
2023/05/14 05:51:50;;;;;;;26.08;23.25;;;;;;;11.77;100.00;101770.22;4968452;28;20110;-76
2023/05/14 05:54:16;;;;;;;32.03;23.10;;;;;;;11.76;100.00;101762.41;4955279;28;20101;-75
2023/05/14 05:56:45;;;;;;;27.13;23.13;;;;;;;11.70;100.00;101763.63;4968271;28;20085;-75
2023/05/14 05:59:15;;;;;;;26.60;22.92;;;;;;;11.75;100.00;101769.47;4969787;28;20046;-75
2023/05/14 06:01:42;;;;;;;27.25;23.20;;;;;;;11.88;100.00;101770.38;4970186;28;20045;-75
2023/05/14 06:04:11;;;;;;;25.13;22.48;;;;;;;11.93;100.00;101776.22;4970303;28;20043;-75
2023/05/14 06:06:41;;;;;;;26.00;23.17;;;;;;;11.97;100.00;101776.84;4971355;28;20035;-74
2023/05/14 06:09:08;;;;;;;26.73;22.08;;;;;;;12.01;100.00;101782.78;4965409;28;20055;-75
2023/05/14 06:11:35;;;;;;;24.90;22.38;;;;;;;12.11;100.00;101783.88;4954730;28;20480;-74
2023/05/14 06:14:00;;;;;;;24.25;21.45;;;;;;;12.19;100.00;101784.22;4955369;28;20050;-75
2023/05/14 06:16:41;;;;;;;28.55;21.65;;;;;;;12.31;100.00;101779.91;4988393;28;20030;-76
2023/05/14 06:19:07;;;;;;;26.25;21.70;;;;;;;12.30;100.00;101773.81;5007587;28;20403;-76
2023/05/14 06:21:36;;;;;;;25.20;20.95;;;;;;;12.36;100.00;101778.66;4990951;28;20022;-77
2023/05/14 06:24:20;;;;;;;27.83;21.30;;;;;;;12.41;100.00;101789.78;4989537;28;20041;-77
2023/05/14 06:27:15;;;;;;;25.48;20.10;;;;;;;12.53;100.00;101793.41;4988070;28;20446;-77
2023/05/14 06:29:43;;;;;;;25.25;21.35;;;;;;;12.49;100.00;101792.75;4978866;28;20050;-77
2023/05/14 06:32:35;;;;;;;27.77;21.35;;;;;;;12.50;100.00;101794.44;4992532;28;20034;-77
2023/05/14 06:35:44;;;;;;;24.88;21.17;;;;;;;12.66;100.00;101790.78;4992927;28;20033;-75
2023/05/14 06:38:19;;;;;;;23.65;20.30;;;;;;;12.65;99.51;101791.72;4998120;28;20043;-76
2023/05/14 06:41:06;;;;;;;22.13;19.35;;;;;;;12.81;98.97;101787.09;4984829;28;20022;-76
2023/05/14 06:43:47;;;;;;;21.85;19.55;;;;;;;12.86;98.96;101787.63;4991976;28;20077;-76
2023/05/14 06:46:22;;;;;;;22.92;20.40;;;;;;;13.00;98.72;101784.88;5004439;28;20096;-76
2023/05/14 06:49:21;;;;;;;22.80;19.58;;;;;;;13.13;97.29;101785.72;4990926;28;20061;-75
2023/05/14 06:51:46;;;;;;;23.42;20.40;;;;;;;13.19;96.00;101773.91;4990649;28;20458;-76
2023/05/14 06:54:27;;;;;;;24.05;19.55;;;;;;;13.13;96.14;101777.78;4989470;28;20030;-76
2023/05/14 06:56:53;;;;;;;22.08;19.67;;;;;;;13.35;94.92;101773.69;4989809;28;20030;-76
2023/05/14 06:59:30;;;;;;;21.60;19.25;;;;;;;13.52;95.14;101780.41;4990762;28;20442;-76
2023/05/14 07:01:55;;;;;;;22.98;18.73;;;;;;;13.76;93.79;101779.50;4991581;28;20022;-76
2023/05/14 07:04:54;;;;;;;24.55;19.48;;;;;;;13.79;93.42;101779.28;4991828;28;20056;-75
2023/05/14 07:07:31;;;;;;;21.00;18.90;;;;;;;14.10;92.63;101782.31;4999035;28;20030;-76
2023/05/14 07:10:38;;;;;;;21.83;17.88;;;;;;;14.41;90.77;101773.78;4984144;28;20022;-75
2023/05/14 07:13:11;;;;;;;21.30;18.08;;;;;;;14.60;88.40;101769.78;4999860;28;20070;-78
2023/05/14 07:15:36;;;;;;;20.23;17.38;;;;;;;14.95;87.40;101770.56;4990265;28;20054;-76
2023/05/14 07:18:01;;;;;;;19.63;16.75;;;;;;;15.10;86.32;101767.66;4991187;28;20030;-76
2023/05/14 07:20:27;;;;;;;20.55;16.77;;;;;;;15.53;84.69;101773.06;4992264;28;20019;-76
2023/05/14 07:22:52;;;;;;;21.67;16.65;;;;;;;15.78;81.78;101775.47;5007331;28;20041;-76
2023/05/14 07:25:19;;;;;;;20.38;15.38;;;;;;;15.95;81.04;101777.59;4990939;28;20030;-76
2023/05/14 07:27:44;;;;;;;21.45;15.80;;;;;;;16.17;78.81;101773.19;4992488;28;20645;-76
2023/05/14 07:30:10;;;;;;;18.40;15.85;;;;;;;16.30;77.47;101777.34;4991650;28;20027;-77
2023/05/14 07:32:40;;;;;;;18.27;14.90;;;;;;;16.49;77.84;101776.66;4991548;28;20026;-76
2023/05/14 07:35:05;;;;;;;17.05;14.98;;;;;;;16.76;76.29;101773.50;4991777;28;20030;-76
2023/05/14 07:37:55;;;;;;;18.30;15.18;;;;;;;17.12;76.15;101779.28;4988664;28;20364;-76
2023/05/14 07:40:21;;;;;;;19.85;14.73;;;;;;;17.05;73.02;101772.81;4989785;28;20025;-76
2023/05/14 07:42:46;;;;;;;16.05;14.38;;;;;;;17.20;74.14;101774.13;4981265;28;20058;-76
2023/05/14 07:45:23;;;;;;;18.00;14.05;;;;;;;17.37;73.96;101778.00;4990452;28;20035;-76
2023/05/14 07:47:50;;;;;;;16.65;14.45;;;;;;;17.46;71.63;101777.19;4984611;28;20023;-76
2023/05/14 07:50:17;;;;;;;16.58;13.20;;;;;;;17.37;69.13;101767.38;4989732;28;20387;-76
2023/05/14 07:52:42;;;;;;;16.75;12.70;;;;;;;17.67;68.57;101763.84;4982610;28;20030;-76
2023/05/14 07:55:20;;;;;;;17.45;13.70;;;;;;;17.72;68.60;101758.94;4988614;28;20038;-76
2023/05/14 07:57:48;;;;;;;18.40;13.98;;;;;;;18.07;68.11;101756.59;4988623;28;20038;-76
2023/05/14 08:00:15;;;;;;;14.98;13.43;;;;;;;17.91;67.26;101752.78;4985121;28;20033;-76
2023/05/14 08:02:47;;;;;;;14.93;13.52;;;;;;;18.11;67.56;101751.84;4987216;28;20077;-76
2023/05/14 08:05:13;;;;;;;17.05;13.52;;;;;;;18.18;67.20;101755.63;4995907;28;20089;-76
2023/05/14 08:07:38;;;;;;;15.68;13.35;;;;;;;18.40;66.68;101751.81;4989716;28;20026;-75
2023/05/14 08:10:05;;;;;;;18.70;13.23;;;;;;;18.72;64.90;101764.84;4987944;28;20029;-75
2023/05/14 08:12:31;;;;;;;16.02;13.05;;;;;;;18.64;64.66;101759.38;4985270;28;20042;-76
2023/05/14 08:14:56;;;;;;;16.65;12.57;;;;;;;18.60;66.16;101752.63;4989778;28;20034;-76
2023/05/14 08:17:34;;;;;;;17.73;12.88;;;;;;;18.83;65.47;101750.50;4989888;28;20475;-76
2023/05/14 08:20:00;;;;;;;17.30;12.30;;;;;;;19.04;63.81;101751.13;4984729;28;20034;-76
2023/05/14 08:22:35;;;;;;;14.95;12.52;;;;;;;19.24;64.71;101751.91;4989929;28;20037;-76
2023/05/14 08:25:02;;;;;;;18.38;13.45;;;;;;;19.32;61.99;101752.84;4984776;28;20030;-76
2023/05/14 08:27:27;;;;;;;22.90;13.65;;;;;;;19.40;61.56;101758.28;4988743;28;20122;-76
2023/05/14 08:30:15;;;;;;;20.80;13.18;;;;;;;19.57;64.95;101755.81;4987671;28;20469;-76
2023/05/14 08:32:50;;;;;;;16.25;13.68;;;;;;;19.82;61.96;101751.59;5005039;28;20037;-76
2023/05/14 08:35:31;;;;;;;16.00;13.15;;;;;;;19.84;62.97;101755.78;4987173;28;20029;-76
2023/05/14 08:38:31;;;;;;;14.95;13.10;;;;;;;19.97;63.88;101745.56;5003335;28;20034;-76
2023/05/14 08:45:02;;;;;;;;;;;;;;;;;;;;;
2023/05/14 08:48:04;;;;;;;14.15;11.73;;;;;;;20.55;60.55;101742.41;4969616;28;20056;-76
2023/05/14 08:51:11;;;;;;;12.65;11.32;;;;;;;21.06;59.68;101738.00;4969832;28;20026;-76
2023/05/14 08:54:31;;;;;;;;;;;;;;;;;;;;;
2023/05/14 09:00:30;;;;;;;12.15;10.40;;;;;;;20.55;57.51;101726.34;4965712;28;20139;-76
2023/05/14 09:04:05;;;;;;;;;;;;;;;;;;;;;
2023/05/14 09:07:09;;;;;;;15.50;10.98;;;;;;;20.25;59.70;101724.09;4888761;29;20155;-77
2023/05/14 09:13:27;;;;;;;14.98;10.30;;;;;;;20.87;55.55;101707.00;4978094;28;20440;-76
2023/05/14 09:16:01;;;;;;;12.63;10.15;;;;;;;21.20;53.70;101709.78;4890813;29;20075;-76
2023/05/14 09:21:49;;;;;;;13.52;9.85;;;;;;;22.20;53.18;101712.38;4878527;29;20518;-75
2023/05/14 09:24:28;;;;;;;12.77;9.65;;;;;;;22.33;53.33;101701.13;4910499;29;20039;-75
2023/05/14 09:26:56;;;;;;;11.00;9.80;;;;;;;22.16;51.45;101707.53;4943993;28;20065;-75
2023/05/14 09:29:28;;;;;;;14.20;10.32;;;;;;;22.13;52.90;101705.19;4987965;28;20074;-76
2023/05/14 09:32:04;;;;;;;13.25;9.60;;;;;;;22.38;51.93;101697.94;4987227;28;20399;-75
2023/05/14 09:34:41;;;;;;;15.77;9.82;;;;;;;22.48;51.29;101694.09;4984390;28;20022;-75
2023/05/14 09:37:08;;;;;;;10.82;9.00;;;;;;;22.77;51.22;101698.88;4992875;28;20034;-75
2023/05/14 09:40:32;;;;;;;13.10;9.82;;;;;;;23.25;51.95;101694.38;5005603;28;20033;-74
2023/05/14 09:43:35;;;;;;;12.63;9.02;;;;;;;23.27;51.37;101691.50;4992598;28;20054;-75
2023/05/14 09:49:20;;;;;;;12.60;9.35;;;;;;;23.36;49.01;101688.59;4987445;28;20455;-76
2023/05/14 09:51:47;;;;;;;11.07;8.95;;;;;;;23.97;46.25;101686.00;4987187;28;20113;-75
2023/05/14 09:54:16;;;;;;;10.52;8.10;;;;;;;24.92;45.15;101686.25;4990107;28;20114;-75
2023/05/14 09:56:44;;;;;;;8.52;7.63;;;;;;;26.47;41.69;101684.78;4990773;28;20602;-75
2023/05/14 09:59:09;;;;;;;13.30;7.80;;;;;;;27.70;39.04;101678.50;4991656;28;20026;-75
2023/05/14 10:01:37;;;;;;;11.82;8.18;;;;;;;28.69;37.47;101673.84;4991971;28;20022;-75
2023/05/14 10:04:06;;;;;;;11.70;8.32;;;;;;;29.09;36.44;101668.31;4992728;28;20041;-75
2023/05/14 10:06:36;;;;;;;9.88;7.97;;;;;;;29.00;36.30;101669.63;4991251;28;20040;-76
2023/05/14 10:09:11;;;;;;;10.70;8.27;;;;;;;29.42;36.99;101665.44;4985433;28;20456;-74
2023/05/14 10:11:44;;;;;;;13.07;8.10;;;;;;;28.96;37.10;101657.56;4981358;28;20177;-75
2023/05/14 10:14:17;;;;;;;9.43;7.72;;;;;;;28.31;37.06;101662.91;4990598;28;20030;-75
2023/05/14 10:16:52;;;;;;;10.05;7.00;;;;;;;27.20;37.88;101658.16;4989245;28;20491;-75
2023/05/14 10:19:20;;;;;;;12.02;8.80;;;;;;;26.14;40.67;101663.75;4988096;28;20031;-75
2023/05/14 10:21:49;;;;;;;13.13;7.53;;;;;;;25.68;43.21;101662.53;4990801;28;20037;-75
2023/05/14 10:24:15;;;;;;;12.52;8.05;;;;;;;25.25;42.92;101657.91;4991820;28;20026;-75
2023/05/14 10:26:41;;;;;;;10.05;7.95;;;;;;;24.81;44.58;101660.63;4991106;28;20487;-75
2023/05/14 10:29:08;;;;;;;8.35;6.90;;;;;;;24.68;43.64;101660.47;4991503;28;20030;-75
2023/05/14 10:31:50;;;;;;;10.20;7.18;;;;;;;24.78;45.66;101662.84;4993928;28;20494;-75
2023/05/14 10:34:50;;;;;;;10.57;6.80;;;;;;;24.59;44.67;101661.56;4993278;28;20026;-75
2023/05/14 10:37:26;;;;;;;9.75;6.82;;;;;;;24.11;43.07;101666.41;4992657;28;20455;-75
2023/05/14 10:40:07;;;;;;;12.75;7.70;;;;;;;23.74;44.41;101665.38;4993124;28;20557;-75
2023/05/14 10:43:04;;;;;;;11.48;7.32;;;;;;;23.94;46.35;101662.16;4990949;28;20026;-75
2023/05/14 10:45:32;;;;;;;15.80;7.47;;;;;;;23.83;47.20;101658.06;4987565;28;20042;-76
2023/05/14 10:48:30;;;;;;;10.38;8.23;;;;;;;24.22;47.56;101646.28;4993161;28;20109;-75
2023/05/14 10:51:12;;;;;;;13.57;8.18;;;;;;;23.78;47.07;101644.34;4992621;28;20022;-76
2023/05/14 10:53:40;;;;;;;10.75;6.85;;;;;;;23.93;45.74;101647.91;4992761;28;20172;-76
2023/05/14 10:59:45;;;;;;;;;;;;;;;;;;;;;
2023/05/14 11:02:20;;;;;;;10.70;7.03;;;;;;;23.81;47.01;101635.06;4987307;28;20382;-75
2023/05/14 11:05:09;;;;;;;8.27;7.28;;;;;;;24.06;47.59;101636.53;4991109;28;20034;-75
2023/05/14 11:07:48;;;;;;;9.73;6.80;;;;;;;24.58;47.62;101625.75;5008786;28;20030;-75
2023/05/14 11:10:17;;;;;;;11.68;8.25;;;;;;;24.47;44.98;101625.41;4991750;28;20376;-75
2023/05/14 11:12:47;;;;;;;12.82;8.52;;;;;;;24.67;43.94;101634.56;4991939;28;20487;-75
2023/05/14 11:15:19;;;;;;;7.85;6.82;;;;;;;24.86;44.07;101622.41;4991915;28;20133;-77
2023/05/14 11:17:45;;;;;;;11.07;5.88;;;;;;;24.57;41.10;101621.41;4992393;28;20028;-75
2023/05/14 11:20:12;;;;;;;8.77;6.53;;;;;;;24.58;43.29;101614.16;4992496;28;20022;-75
2023/05/14 11:22:39;;;;;;;7.80;5.90;;;;;;;24.72;43.01;101616.00;4973865;28;20045;-75
2023/05/14 11:25:06;;;;;;;8.38;6.07;;;;;;;24.28;42.90;101616.84;4972672;28;20031;-75
2023/05/14 11:27:34;;;;;;;7.55;6.85;;;;;;;24.54;43.97;101615.56;4993603;28;20533;-75
2023/05/14 11:30:15;;;;;;;7.00;5.97;;;;;;;24.78;43.07;101615.22;4993271;28;20018;-75
2023/05/14 11:32:47;;;;;;;6.38;5.30;;;;;;;24.79;40.85;101605.31;4992241;28;20038;-76
2023/05/14 11:35:17;;;;;;;7.28;5.75;;;;;;;24.84;41.74;101611.81;4998833;28;20394;-75
2023/05/14 11:37:48;;;;;;;8.65;5.95;;;;;;;24.85;41.71;101605.41;4973804;28;20026;-76
2023/05/14 11:40:15;;;;;;;7.03;5.68;;;;;;;25.03;40.63;101604.19;4971763;28;20027;-75
2023/05/14 11:42:41;;;;;;;8.50;5.13;;;;;;;25.03;38.39;101601.50;4973108;28;20022;-75
2023/05/14 11:45:10;;;;;;;7.53;5.22;;;;;;;24.98;38.89;101594.81;4970665;28;20491;-76
2023/05/14 11:47:36;;;;;;;5.30;4.80;;;;;;;25.13;40.78;101597.47;4971366;28;20122;-76
2023/05/14 11:50:04;;;;;;;8.93;5.18;;;;;;;24.77;38.18;101596.59;4972922;28;20102;-76
2023/05/14 11:52:30;;;;;;;6.03;4.72;;;;;;;24.38;36.67;101589.66;4970955;28;20026;-76
2023/05/14 11:54:55;;;;;;;5.47;4.40;;;;;;;24.35;37.01;101582.78;4990727;28;20053;-76
2023/05/14 11:57:25;;;;;;;8.57;4.93;;;;;;;24.76;39.62;101589.53;4991763;28;20030;-76
2023/05/14 12:00:05;;;;;;;8.05;4.90;;;;;;;24.51;38.24;101592.53;4992338;28;20382;-76